sensor_id;sensor_type;location;lat;lon;timestamp;pressure;altitude;pressure_sealevel;temperature;humidity
78337;BME280;67610;51.588;7.002;2023-05-07T00:00:08;100903.38;;;17.13;65.89
78337;BME280;67610;51.588;7.002;2023-05-07T00:02:34;100903.19;;;17.14;65.80
78337;BME280;67610;51.588;7.002;2023-05-07T00:04:59;100903.03;;;17.16;65.89
78337;BME280;67610;51.588;7.002;2023-05-07T00:07:25;100903.03;;;17.16;65.60
78337;BME280;67610;51.588;7.002;2023-05-07T00:09:50;100909.97;;;17.17;65.69
78337;BME280;67610;51.588;7.002;2023-05-07T00:12:15;100908.13;;;17.17;65.51
78337;BME280;67610;51.588;7.002;2023-05-07T00:14:41;100899.34;;;17.17;65.59
78337;BME280;67610;51.588;7.002;2023-05-07T00:17:06;100909.78;;;17.18;65.69
78337;BME280;67610;51.588;7.002;2023-05-07T00:19:32;100901.78;;;17.18;65.68
78337;BME280;67610;51.588;7.002;2023-05-07T00:21:57;100905.28;;;17.19;65.67
78337;BME280;67610;51.588;7.002;2023-05-07T00:24:23;100894.66;;;17.19;65.50
78337;BME280;67610;51.588;7.002;2023-05-07T00:26:49;100902.63;;;17.19;65.48
78337;BME280;67610;51.588;7.002;2023-05-07T00:29:14;100904.44;;;17.18;65.64
78337;BME280;67610;51.588;7.002;2023-05-07T00:31:39;100895.84;;;17.16;65.36
78337;BME280;67610;51.588;7.002;2023-05-07T00:34:05;100888.91;;;17.15;65.68
78337;BME280;67610;51.588;7.002;2023-05-07T00:36:31;100895.06;;;17.16;65.53
78337;BME280;67610;51.588;7.002;2023-05-07T00:38:59;100883.94;;;17.12;66.07
78337;BME280;67610;51.588;7.002;2023-05-07T00:41:25;100884.50;;;17.08;65.81
78337;BME280;67610;51.588;7.002;2023-05-07T00:43:51;100883.06;;;17.05;66.01
78337;BME280;67610;51.588;7.002;2023-05-07T00:46:17;100879.34;;;17.00;66.45
78337;BME280;67610;51.588;7.002;2023-05-07T00:48:42;100878.88;;;16.96;66.62
78337;BME280;67610;51.588;7.002;2023-05-07T00:51:08;100872.28;;;16.92;66.48
78337;BME280;67610;51.588;7.002;2023-05-07T00:53:34;100871.81;;;16.89;66.42
78337;BME280;67610;51.588;7.002;2023-05-07T00:56:00;100867.34;;;16.89;66.45
78337;BME280;67610;51.588;7.002;2023-05-07T00:58:26;100867.34;;;16.89;66.52
78337;BME280;67610;51.588;7.002;2023-05-07T01:00:51;100867.53;;;16.88;66.50
78337;BME280;67610;51.588;7.002;2023-05-07T01:03:17;100872.00;;;16.87;66.82
78337;BME280;67610;51.588;7.002;2023-05-07T01:05:43;100879.97;;;16.87;66.77
78337;BME280;67610;51.588;7.002;2023-05-07T01:08:11;100888.78;;;16.88;66.82
78337;BME280;67610;51.588;7.002;2023-05-07T01:10:36;100876.69;;;16.85;66.85
78337;BME280;67610;51.588;7.002;2023-05-07T01:13:02;100875.44;;;16.81;66.99
78337;BME280;67610;51.588;7.002;2023-05-07T01:15:28;100874.13;;;16.77;67.17
78337;BME280;67610;51.588;7.002;2023-05-07T01:17:53;100868.81;;;16.77;67.32
78337;BME280;67610;51.588;7.002;2023-05-07T01:20:22;100870.47;;;16.78;67.46
78337;BME280;67610;51.588;7.002;2023-05-07T01:22:48;100877.41;;;16.79;67.31
78337;BME280;67610;51.588;7.002;2023-05-07T01:25:14;100870.47;;;16.78;67.33
78337;BME280;67610;51.588;7.002;2023-05-07T01:27:41;100879.44;;;16.77;67.29
78337;BME280;67610;51.588;7.002;2023-05-07T01:30:07;100875.72;;;16.71;67.74
78337;BME280;67610;51.588;7.002;2023-05-07T01:32:43;100874.88;;;16.71;68.54
78337;BME280;67610;51.588;7.002;2023-05-07T01:35:14;100875.72;;;16.71;67.77
78337;BME280;67610;51.588;7.002;2023-05-07T01:37:40;100876.50;;;16.72;67.71
78337;BME280;67610;51.588;7.002;2023-05-07T01:40:07;100876.06;;;16.68;67.92
78337;BME280;67610;51.588;7.002;2023-05-07T01:42:33;100869.94;;;16.68;67.86
78337;BME280;67610;51.588;7.002;2023-05-07T01:44:58;100871.94;;;16.66;67.92
78337;BME280;67610;51.588;7.002;2023-05-07T01:47:24;100869.41;;;16.58;68.34
78337;BME280;67610;51.588;7.002;2023-05-07T01:49:50;100875.09;;;16.55;68.33
78337;BME280;67610;51.588;7.002;2023-05-07T01:52:16;100873.41;;;16.54;68.56
78337;BME280;67610;51.588;7.002;2023-05-07T01:54:41;100872.94;;;16.50;68.57
78337;BME280;67610;51.588;7.002;2023-05-07T01:57:07;100869.19;;;16.45;69.14
78337;BME280;67610;51.588;7.002;2023-05-07T01:59:33;100868.34;;;16.44;69.10
78337;BME280;67610;51.588;7.002;2023-05-07T02:01:58;100866.72;;;16.43;69.16
78337;BME280;67610;51.588;7.002;2023-05-07T02:04:23;100870.75;;;16.39;69.77
78337;BME280;67610;51.588;7.002;2023-05-07T02:06:49;100869.66;;;16.34;69.57
78337;BME280;67610;51.588;7.002;2023-05-07T02:09:15;100867.34;;;16.31;69.53
78337;BME280;67610;51.588;7.002;2023-05-07T02:11:41;100876.78;;;16.33;69.57
78337;BME280;67610;51.588;7.002;2023-05-07T02:14:06;100869.44;;;16.35;69.42
78337;BME280;67610;51.588;7.002;2023-05-07T02:16:31;100867.63;;;16.36;69.32
78337;BME280;67610;51.588;7.002;2023-05-07T02:18:57;100870.28;;;16.36;69.55
78337;BME280;67610;51.588;7.002;2023-05-07T02:21:23;100867.97;;;16.33;69.65
78337;BME280;67610;51.588;7.002;2023-05-07T02:23:48;100866.78;;;16.35;69.51
78337;BME280;67610;51.588;7.002;2023-05-07T02:26:14;100860.69;;;16.35;69.58
78337;BME280;67610;51.588;7.002;2023-05-07T02:28:39;100865.16;;;16.34;69.58
78337;BME280;67610;51.588;7.002;2023-05-07T02:31:05;100859.84;;;16.34;69.31
78337;BME280;67610;51.588;7.002;2023-05-07T02:33:33;100862.31;;;16.36;69.45
78337;BME280;67610;51.588;7.002;2023-05-07T02:36:10;100860.03;;;16.33;69.85
78337;BME280;67610;51.588;7.002;2023-05-07T02:38:36;100861.03;;;16.32;69.48
78337;BME280;67610;51.588;7.002;2023-05-07T02:41:01;100863.69;;;16.32;69.37
78337;BME280;67610;51.588;7.002;2023-05-07T02:43:27;100870.84;;;16.31;69.38
78337;BME280;67610;51.588;7.002;2023-05-07T02:46:02;100870.84;;;16.31;69.77
78337;BME280;67610;51.588;7.002;2023-05-07T02:48:28;100873.13;;;16.34;69.51
78337;BME280;67610;51.588;7.002;2023-05-07T02:50:53;100872.03;;;16.29;69.60
78337;BME280;67610;51.588;7.002;2023-05-07T02:53:18;100866.28;;;16.25;69.68
78337;BME280;67610;51.588;7.002;2023-05-07T02:55:44;100860.75;;;16.27;69.73
78337;BME280;67610;51.588;7.002;2023-05-07T02:58:09;100863.63;;;16.25;69.58
78337;BME280;67610;51.588;7.002;2023-05-07T03:00:34;100862.16;;;16.23;69.85
78337;BME280;67610;51.588;7.002;2023-05-07T03:03:00;100857.00;;;16.21;69.89
78337;BME280;67610;51.588;7.002;2023-05-07T03:05:25;100855.38;;;16.20;70.01
78337;BME280;67610;51.588;7.002;2023-05-07T03:07:50;100864.16;;;16.21;69.42
78337;BME280;67610;51.588;7.002;2023-05-07T03:10:16;100865.78;;;16.22;69.89
78337;BME280;67610;51.588;7.002;2023-05-07T03:12:41;100868.84;;;16.19;69.85
78337;BME280;67610;51.588;7.002;2023-05-07T03:15:07;100866.81;;;16.21;69.88
78337;BME280;67610;51.588;7.002;2023-05-07T03:17:33;100870.81;;;16.17;70.12
78337;BME280;67610;51.588;7.002;2023-05-07T03:19:58;100868.34;;;16.15;70.13
78337;BME280;67610;51.588;7.002;2023-05-07T03:22:23;100869.53;;;16.13;70.52
78337;BME280;67610;51.588;7.002;2023-05-07T03:24:49;100868.91;;;16.11;70.22
78337;BME280;67610;51.588;7.002;2023-05-07T03:27:14;100869.53;;;16.13;70.05
78337;BME280;67610;51.588;7.002;2023-05-07T03:29:40;100862.59;;;16.12;70.38
78337;BME280;67610;51.588;7.002;2023-05-07T03:32:05;100867.53;;;16.15;70.18
78337;BME280;67610;51.588;7.002;2023-05-07T03:34:31;100867.53;;;16.15;70.15
78337;BME280;67610;51.588;7.002;2023-05-07T03:36:56;100867.53;;;16.15;70.39
78337;BME280;67610;51.588;7.002;2023-05-07T03:39:21;100873.47;;;16.17;70.28
78337;BME280;67610;51.588;7.002;2023-05-07T03:41:47;100862.69;;;16.18;70.04
78337;BME280;67610;51.588;7.002;2023-05-07T03:44:12;100866.97;;;16.19;69.95
78337;BME280;67610;51.588;7.002;2023-05-07T03:46:38;100871.66;;;16.17;70.12
78337;BME280;67610;51.588;7.002;2023-05-07T03:49:03;100866.25;;;16.11;70.23
78337;BME280;67610;51.588;7.002;2023-05-07T03:51:28;100867.44;;;16.08;70.36
78337;BME280;67610;51.588;7.002;2023-05-07T03:53:54;100871.25;;;16.05;70.43
78337;BME280;67610;51.588;7.002;2023-05-07T03:56:19;100875.50;;;16.00;70.54
78337;BME280;67610;51.588;7.002;2023-05-07T03:58:45;100864.41;;;15.96;70.58
78337;BME280;67610;51.588;7.002;2023-05-07T04:01:10;100876.47;;;15.99;70.55
78337;BME280;67610;51.588;7.002;2023-05-07T04:03:36;100869.16;;;16.01;70.59
78337;BME280;67610;51.588;7.002;2023-05-07T04:06:02;100875.94;;;16.03;70.57
78337;BME280;67610;51.588;7.002;2023-05-07T04:08:27;100876.56;;;16.05;70.52
78337;BME280;67610;51.588;7.002;2023-05-07T04:10:57;100876.41;;;16.07;70.57
78337;BME280;67610;51.588;7.002;2023-05-07T04:13:22;100878.88;;;16.08;70.47
78337;BME280;67610;51.588;7.002;2023-05-07T04:15:48;100876.03;;;16.10;70.35
78337;BME280;67610;51.588;7.002;2023-05-07T04:18:14;100883.00;;;16.11;70.45
78337;BME280;67610;51.588;7.002;2023-05-07T04:20:39;100875.19;;;16.09;70.47
78337;BME280;67610;51.588;7.002;2023-05-07T04:23:05;100874.41;;;16.09;70.13
78337;BME280;67610;51.588;7.002;2023-05-07T04:25:30;100874.41;;;16.09;70.49
78337;BME280;67610;51.588;7.002;2023-05-07T04:27:56;100874.56;;;16.07;70.49
78337;BME280;67610;51.588;7.002;2023-05-07T04:30:21;100872.94;;;16.06;70.47
78337;BME280;67610;51.588;7.002;2023-05-07T04:32:47;100873.75;;;16.07;70.79
78337;BME280;67610;51.588;7.002;2023-05-07T04:35:13;100873.91;;;16.05;70.98
78337;BME280;67610;51.588;7.002;2023-05-07T04:37:38;100871.66;;;16.02;70.58
78337;BME280;67610;51.588;7.002;2023-05-07T04:40:04;100873.28;;;16.03;70.52
78337;BME280;67610;51.588;7.002;2023-05-07T04:42:30;100866.97;;;16.04;70.55
78337;BME280;67610;51.588;7.002;2023-05-07T04:44:56;100883.91;;;16.03;70.74
78337;BME280;67610;51.588;7.002;2023-05-07T04:47:21;100880.06;;;16.06;71.37
78337;BME280;67610;51.588;7.002;2023-05-07T04:49:47;100885.81;;;16.09;70.86
78337;BME280;67610;51.588;7.002;2023-05-07T04:52:12;100889.50;;;16.08;71.30
78337;BME280;67610;51.588;7.002;2023-05-07T04:54:37;100889.50;;;16.08;70.86
78337;BME280;67610;51.588;7.002;2023-05-07T04:57:03;100887.28;;;16.12;71.01
78337;BME280;67610;51.588;7.002;2023-05-07T04:59:29;100887.47;;;16.11;70.74
78337;BME280;67610;51.588;7.002;2023-05-07T05:01:55;100893.91;;;16.16;70.56
78337;BME280;67610;51.588;7.002;2023-05-07T05:04:20;100892.53;;;16.20;70.48
78337;BME280;67610;51.588;7.002;2023-05-07T05:06:45;100901.59;;;16.26;70.50
78337;BME280;67610;51.588;7.002;2023-05-07T05:09:11;100902.25;;;16.28;70.65
78337;BME280;67610;51.588;7.002;2023-05-07T05:11:36;100907.56;;;16.28;70.04
78337;BME280;67610;51.588;7.002;2023-05-07T05:14:02;100911.28;;;16.33;69.93
78337;BME280;67610;51.588;7.002;2023-05-07T05:16:27;100912.13;;;16.34;69.95
78337;BME280;67610;51.588;7.002;2023-05-07T05:18:52;100919.72;;;16.37;69.78
78337;BME280;67610;51.588;7.002;2023-05-07T05:21:20;100907.44;;;16.36;69.69
78337;BME280;67610;51.588;7.002;2023-05-07T05:23:45;100908.72;;;16.40;69.56
78337;BME280;67610;51.588;7.002;2023-05-07T05:26:11;100910.47;;;16.47;69.36
78337;BME280;67610;51.588;7.002;2023-05-07T05:28:36;100917.28;;;16.64;69.03
78337;BME280;67610;51.588;7.002;2023-05-07T05:31:01;100914.59;;;16.79;68.66
78337;BME280;67610;51.588;7.002;2023-05-07T05:33:27;100914.25;;;16.97;68.50
78337;BME280;67610;51.588;7.002;2023-05-07T05:35:53;100914.44;;;17.16;68.13
78337;BME280;67610;51.588;7.002;2023-05-07T05:38:19;100918.31;;;17.50;67.42
78337;BME280;67610;51.588;7.002;2023-05-07T05:40:46;100914.47;;;17.73;66.85
78337;BME280;67610;51.588;7.002;2023-05-07T05:43:11;100917.91;;;17.95;66.22
78337;BME280;67610;51.588;7.002;2023-05-07T05:45:36;100912.44;;;18.24;65.24
78337;BME280;67610;51.588;7.002;2023-05-07T05:48:02;100915.47;;;18.49;64.33
78337;BME280;67610;51.588;7.002;2023-05-07T05:50:27;100908.28;;;18.83;63.68
78337;BME280;67610;51.588;7.002;2023-05-07T05:52:53;100920.66;;;18.98;62.33
78337;BME280;67610;51.588;7.002;2023-05-07T05:55:18;100921.91;;;19.08;61.64
78337;BME280;67610;51.588;7.002;2023-05-07T05:57:43;100918.09;;;19.24;61.37
78337;BME280;67610;51.588;7.002;2023-05-07T06:00:10;100924.88;;;19.33;61.77
78337;BME280;67610;51.588;7.002;2023-05-07T06:02:35;100921.44;;;19.52;61.14
78337;BME280;67610;51.588;7.002;2023-05-07T06:05:00;100916.16;;;19.65;60.56
78337;BME280;67610;51.588;7.002;2023-05-07T06:07:26;100920.66;;;19.78;60.03
78337;BME280;67610;51.588;7.002;2023-05-07T06:09:51;100921.31;;;19.86;59.41
78337;BME280;67610;51.588;7.002;2023-05-07T06:12:16;100921.69;;;20.16;58.86
78337;BME280;67610;51.588;7.002;2023-05-07T06:14:45;100924.41;;;20.23;58.61
78337;BME280;67610;51.588;7.002;2023-05-07T06:17:10;100923.34;;;20.24;57.95
78337;BME280;67610;51.588;7.002;2023-05-07T06:19:35;100930.78;;;20.28;58.03
78337;BME280;67610;51.588;7.002;2023-05-07T06:22:01;100933.81;;;20.38;58.01
78337;BME280;67610;51.588;7.002;2023-05-07T06:24:27;100937.31;;;20.45;57.08
78337;BME280;67610;51.588;7.002;2023-05-07T06:26:53;100938.34;;;20.38;57.37
78337;BME280;67610;51.588;7.002;2023-05-07T06:29:18;100942.25;;;20.29;57.27
78337;BME280;67610;51.588;7.002;2023-05-07T06:31:44;100950.88;;;20.24;57.57
78337;BME280;67610;51.588;7.002;2023-05-07T06:34:10;100953.13;;;20.20;58.15
78337;BME280;67610;51.588;7.002;2023-05-07T06:36:39;100956.44;;;20.23;58.39
78337;BME280;67610;51.588;7.002;2023-05-07T06:39:04;100960.75;;;20.24;57.42
78337;BME280;67610;51.588;7.002;2023-05-07T06:41:30;100956.44;;;20.09;57.91
78337;BME280;67610;51.588;7.002;2023-05-07T06:43:55;100955.38;;;20.04;57.66
78337;BME280;67610;51.588;7.002;2023-05-07T06:46:21;100953.53;;;19.91;58.17
78337;BME280;67610;51.588;7.002;2023-05-07T06:48:46;100945.94;;;19.88;58.73
78337;BME280;67610;51.588;7.002;2023-05-07T06:51:11;100956.41;;;19.90;58.65
78337;BME280;67610;51.588;7.002;2023-05-07T06:53:37;100947.38;;;19.91;58.19
78337;BME280;67610;51.588;7.002;2023-05-07T06:56:02;100943.88;;;19.90;58.33
78337;BME280;67610;51.588;7.002;2023-05-07T06:58:27;100945.34;;;19.93;58.05
78337;BME280;67610;51.588;7.002;2023-05-07T07:00:53;100948.63;;;19.95;58.24
78337;BME280;67610;51.588;7.002;2023-05-07T07:03:18;100945.31;;;19.99;57.91
78337;BME280;67610;51.588;7.002;2023-05-07T07:05:43;100950.44;;;20.07;57.76
78337;BME280;67610;51.588;7.002;2023-05-07T07:08:09;100957.03;;;20.11;57.89
78337;BME280;67610;51.588;7.002;2023-05-07T07:10:35;100953.78;;;20.23;57.93
78337;BME280;67610;51.588;7.002;2023-05-07T07:13:01;100949.88;;;20.32;57.50
78337;BME280;67610;51.588;7.002;2023-05-07T07:15:26;100951.69;;;20.38;57.68
78337;BME280;67610;51.588;7.002;2023-05-07T07:17:51;100953.75;;;20.49;57.50
78337;BME280;67610;51.588;7.002;2023-05-07T07:20:17;100953.31;;;20.58;57.40
78337;BME280;67610;51.588;7.002;2023-05-07T07:22:42;100955.78;;;20.66;57.18
78337;BME280;67610;51.588;7.002;2023-05-07T07:25:08;100950.81;;;20.70;56.62
78337;BME280;67610;51.588;7.002;2023-05-07T07:27:34;100953.91;;;20.67;56.27
78337;BME280;67610;51.588;7.002;2023-05-07T07:30:00;100951.84;;;20.69;56.69
78337;BME280;67610;51.588;7.002;2023-05-07T07:32:25;100950.34;;;20.86;56.36
78337;BME280;67610;51.588;7.002;2023-05-07T07:34:51;100957.94;;;20.96;55.78
78337;BME280;67610;51.588;7.002;2023-05-07T07:37:16;100965.94;;;21.15;55.43
78337;BME280;67610;51.588;7.002;2023-05-07T07:39:42;100957.53;;;21.49;54.72
78337;BME280;67610;51.588;7.002;2023-05-07T07:42:07;100955.28;;;21.78;54.42
78337;BME280;67610;51.588;7.002;2023-05-07T07:44:32;100957.47;;;22.18;54.04
78337;BME280;67610;51.588;7.002;2023-05-07T07:46:58;100971.00;;;22.48;53.77
78337;BME280;67610;51.588;7.002;2023-05-07T07:49:23;100967.50;;;22.72;52.46
78337;BME280;67610;51.588;7.002;2023-05-07T07:51:48;100965.41;;;22.92;50.98
78337;BME280;67610;51.588;7.002;2023-05-07T07:54:14;100964.19;;;23.25;50.59
78337;BME280;67610;51.588;7.002;2023-05-07T07:56:39;100965.00;;;23.25;49.52
78337;BME280;67610;51.588;7.002;2023-05-07T07:59:05;100970.22;;;23.38;49.24
78337;BME280;67610;51.588;7.002;2023-05-07T08:01:30;100964.41;;;23.41;48.56
78337;BME280;67610;51.588;7.002;2023-05-07T08:03:56;100971.63;;;23.41;49.73
78337;BME280;67610;51.588;7.002;2023-05-07T08:06:24;100967.91;;;23.42;49.14
78337;BME280;67610;51.588;7.002;2023-05-07T08:08:51;100970.59;;;23.42;49.23
78337;BME280;67610;51.588;7.002;2023-05-07T08:11:17;100973.97;;;23.37;48.86
78337;BME280;67610;51.588;7.002;2023-05-07T08:13:42;100965.81;;;23.26;49.00
78337;BME280;67610;51.588;7.002;2023-05-07T08:16:08;100974.16;;;23.18;48.63
78337;BME280;67610;51.588;7.002;2023-05-07T08:18:33;100972.63;;;23.10;49.15
78337;BME280;67610;51.588;7.002;2023-05-07T08:20:59;100981.38;;;23.06;48.85
78337;BME280;67610;51.588;7.002;2023-05-07T08:23:24;100987.16;;;23.03;48.84
78337;BME280;67610;51.588;7.002;2023-05-07T08:25:50;100982.25;;;23.00;48.79
78337;BME280;67610;51.588;7.002;2023-05-07T08:28:16;100986.56;;;23.01;48.31
78337;BME280;67610;51.588;7.002;2023-05-07T08:30:41;100998.34;;;23.00;48.57
78337;BME280;67610;51.588;7.002;2023-05-07T08:33:08;100988.34;;;22.88;49.01
78337;BME280;67610;51.588;7.002;2023-05-07T08:35:34;100989.78;;;22.91;48.32
78337;BME280;67610;51.588;7.002;2023-05-07T08:37:59;100986.34;;;22.84;48.49
78337;BME280;67610;51.588;7.002;2023-05-07T08:40:26;100993.72;;;22.70;48.72
78337;BME280;67610;51.588;7.002;2023-05-07T08:42:55;100993.59;;;22.59;48.57
78337;BME280;67610;51.588;7.002;2023-05-07T08:45:22;101008.16;;;22.45;48.87
78337;BME280;67610;51.588;7.002;2023-05-07T08:47:51;100991.69;;;22.41;48.79
78337;BME280;67610;51.588;7.002;2023-05-07T08:50:18;100995.69;;;22.32;49.37
78337;BME280;67610;51.588;7.002;2023-05-07T08:52:43;100986.84;;;22.32;49.25
78337;BME280;67610;51.588;7.002;2023-05-07T08:55:09;100991.56;;;22.30;49.26
78337;BME280;67610;51.588;7.002;2023-05-07T08:57:35;100984.53;;;22.35;49.72
78337;BME280;67610;51.588;7.002;2023-05-07T09:00:02;100983.63;;;22.41;49.72
78337;BME280;67610;51.588;7.002;2023-05-07T09:02:28;100990.97;;;22.52;49.97
78337;BME280;67610;51.588;7.002;2023-05-07T09:04:53;100992.06;;;22.69;50.18
78337;BME280;67610;51.588;7.002;2023-05-07T09:07:19;100984.50;;;22.84;49.63
78337;BME280;67610;51.588;7.002;2023-05-07T09:09:46;100983.59;;;22.90;49.26
78337;BME280;67610;51.588;7.002;2023-05-07T09:12:11;100982.69;;;22.97;48.06
78337;BME280;67610;51.588;7.002;2023-05-07T09:14:38;100989.19;;;23.07;47.90
78337;BME280;67610;51.588;7.002;2023-05-07T09:17:03;100993.56;;;23.20;47.88
78337;BME280;67610;51.588;7.002;2023-05-07T09:19:29;100992.38;;;23.16;48.04
78337;BME280;67610;51.588;7.002;2023-05-07T09:21:59;101000.38;;;23.40;46.85
78337;BME280;67610;51.588;7.002;2023-05-07T09:24:25;100999.25;;;23.89;46.58
78337;BME280;67610;51.588;7.002;2023-05-07T09:26:51;101001.66;;;24.09;46.37
78337;BME280;67610;51.588;7.002;2023-05-07T09:29:16;100998.66;;;24.28;46.10
78337;BME280;67610;51.588;7.002;2023-05-07T09:31:42;100996.22;;;24.50;45.34
78337;BME280;67610;51.588;7.002;2023-05-07T09:34:07;100996.22;;;24.62;45.44
78337;BME280;67610;51.588;7.002;2023-05-07T09:36:33;100996.78;;;24.75;45.44
78337;BME280;67610;51.588;7.002;2023-05-07T09:39:02;100997.84;;;24.98;43.99
78337;BME280;67610;51.588;7.002;2023-05-07T09:41:30;100997.94;;;25.03;44.11
78337;BME280;67610;51.588;7.002;2023-05-07T09:43:55;100990.56;;;24.98;43.38
78337;BME280;67610;51.588;7.002;2023-05-07T09:46:25;100991.66;;;24.97;44.27
78337;BME280;67610;51.588;7.002;2023-05-07T09:48:56;100988.00;;;24.91;43.76
78337;BME280;67610;51.588;7.002;2023-05-07T09:51:25;100987.09;;;24.86;44.26
78337;BME280;67610;51.588;7.002;2023-05-07T09:53:53;100987.09;;;24.86;44.03
78337;BME280;67610;51.588;7.002;2023-05-07T09:56:19;100989.78;;;24.86;44.13
78337;BME280;67610;51.588;7.002;2023-05-07T09:58:46;100986.44;;;25.07;44.31
78337;BME280;67610;51.588;7.002;2023-05-07T10:01:12;100978.66;;;25.34;44.35
78337;BME280;67610;51.588;7.002;2023-05-07T10:03:41;100986.00;;;25.78;42.41
78337;BME280;67610;51.588;7.002;2023-05-07T10:06:09;100980.41;;;26.13;41.44
78337;BME280;67610;51.588;7.002;2023-05-07T10:08:35;100982.84;;;26.31;41.53
78337;BME280;67610;51.588;7.002;2023-05-07T10:11:01;100986.31;;;26.65;39.90
78337;BME280;67610;51.588;7.002;2023-05-07T10:13:27;100981.81;;;26.87;39.51
78337;BME280;67610;51.588;7.002;2023-05-07T10:15:52;100985.06;;;26.89;40.25
78337;BME280;67610;51.588;7.002;2023-05-07T10:18:19;100977.56;;;27.13;39.66
78337;BME280;67610;51.588;7.002;2023-05-07T10:20:48;100981.75;;;27.47;39.28
78337;BME280;67610;51.588;7.002;2023-05-07T10:23:19;100973.78;;;27.62;38.90
78337;BME280;67610;51.588;7.002;2023-05-07T10:25:47;100978.47;;;27.98;37.54
78337;BME280;67610;51.588;7.002;2023-05-07T10:28:14;100976.00;;;28.23;36.95
78337;BME280;67610;51.588;7.002;2023-05-07T10:33:17;100975.75;;;28.67;35.22
78337;BME280;67610;51.588;7.002;2023-05-07T10:35:46;100973.13;;;28.77;35.42
78337;BME280;67610;51.588;7.002;2023-05-07T10:38:15;100972.09;;;28.93;34.20
78337;BME280;67610;51.588;7.002;2023-05-07T10:40:40;100980.16;;;28.83;34.94
78337;BME280;67610;51.588;7.002;2023-05-07T10:43:06;100975.66;;;28.57;35.70
78337;BME280;67610;51.588;7.002;2023-05-07T10:45:32;100977.22;;;28.48;36.18
78337;BME280;67610;51.588;7.002;2023-05-07T10:48:13;100981.81;;;28.42;35.16
78337;BME280;67610;51.588;7.002;2023-05-07T10:50:40;100983.75;;;28.52;34.95
78337;BME280;67610;51.588;7.002;2023-05-07T10:55:45;100977.78;;;28.91;34.70
78337;BME280;67610;51.588;7.002;2023-05-07T10:58:25;100970.22;;;28.98;33.80
78337;BME280;67610;51.588;7.002;2023-05-07T11:00:58;100976.19;;;29.05;33.20
78337;BME280;67610;51.588;7.002;2023-05-07T11:03:25;100967.22;;;28.95;33.59
78337;BME280;67610;51.588;7.002;2023-05-07T11:06:10;100963.88;;;28.73;33.85
78337;BME280;67610;51.588;7.002;2023-05-07T11:08:55;100969.56;;;28.71;33.60
78337;BME280;67610;51.588;7.002;2023-05-07T11:11:46;100970.84;;;28.64;34.43
78337;BME280;67610;51.588;7.002;2023-05-07T11:14:57;100967.41;;;28.78;34.19
78337;BME280;67610;51.588;7.002;2023-05-07T11:17:22;100967.47;;;28.83;34.52
78337;BME280;67610;51.588;7.002;2023-05-07T11:19:51;100968.78;;;28.81;33.54
78337;BME280;67610;51.588;7.002;2023-05-07T11:25:03;100963.44;;;28.96;33.60
78337;BME280;67610;51.588;7.002;2023-05-07T11:27:29;100962.84;;;28.79;32.97
78337;BME280;67610;51.588;7.002;2023-05-07T11:29:55;100961.53;;;28.45;32.82
78337;BME280;67610;51.588;7.002;2023-05-07T11:32:27;100958.66;;;28.24;33.86
78337;BME280;67610;51.588;7.002;2023-05-07T11:34:58;100965.03;;;28.08;34.42
78337;BME280;67610;51.588;7.002;2023-05-07T11:37:24;100955.50;;;28.01;34.78
78337;BME280;67610;51.588;7.002;2023-05-07T11:39:50;100956.22;;;27.91;34.76
78337;BME280;67610;51.588;7.002;2023-05-07T11:42:31;100958.41;;;27.94;34.31
78337;BME280;67610;51.588;7.002;2023-05-07T11:44:57;100959.06;;;28.06;35.33
78337;BME280;67610;51.588;7.002;2023-05-07T11:47:23;100953.75;;;27.90;34.94
78337;BME280;67610;51.588;7.002;2023-05-07T11:49:50;100955.63;;;27.84;35.00
78337;BME280;67610;51.588;7.002;2023-05-07T11:52:17;100960.94;;;27.74;33.58
78337;BME280;67610;51.588;7.002;2023-05-07T11:55:02;100957.00;;;27.60;33.70
78337;BME280;67610;51.588;7.002;2023-05-07T11:57:29;100958.50;;;27.46;34.00
78337;BME280;67610;51.588;7.002;2023-05-07T11:59:55;100964.16;;;27.23;34.70
78337;BME280;67610;51.588;7.002;2023-05-07T12:02:21;100962.00;;;27.25;34.77
78337;BME280;67610;51.588;7.002;2023-05-07T12:04:46;100968.44;;;27.19;35.82
78337;BME280;67610;51.588;7.002;2023-05-07T12:07:13;100965.16;;;27.17;35.95
78337;BME280;67610;51.588;7.002;2023-05-07T12:09:39;100971.94;;;26.97;36.64
78337;BME280;67610;51.588;7.002;2023-05-07T12:12:05;100964.53;;;26.71;36.42
78337;BME280;67610;51.588;7.002;2023-05-07T12:14:31;100967.75;;;26.68;36.45
78337;BME280;67610;51.588;7.002;2023-05-07T12:16:58;100970.06;;;26.60;36.71
78337;BME280;67610;51.588;7.002;2023-05-07T12:19:29;100970.38;;;26.63;37.38
78337;BME280;67610;51.588;7.002;2023-05-07T12:21:56;100972.06;;;26.69;37.69
78337;BME280;67610;51.588;7.002;2023-05-07T12:24:21;100960.72;;;26.67;37.46
78337;BME280;67610;51.588;7.002;2023-05-07T12:26:48;100964.84;;;26.53;38.00
78337;BME280;67610;51.588;7.002;2023-05-07T12:29:13;100968.34;;;26.54;38.03
78337;BME280;67610;51.588;7.002;2023-05-07T12:31:42;100973.34;;;26.62;37.14
78337;BME280;67610;51.588;7.002;2023-05-07T12:34:08;100967.13;;;26.61;37.01
78337;BME280;67610;51.588;7.002;2023-05-07T12:36:39;100968.09;;;26.55;37.26
78337;BME280;67610;51.588;7.002;2023-05-07T12:39:08;100964.75;;;26.48;37.95
78337;BME280;67610;51.588;7.002;2023-05-07T12:41:57;100959.81;;;26.40;38.25
78337;BME280;67610;51.588;7.002;2023-05-07T12:44:25;100966.34;;;26.27;38.23
78337;BME280;67610;51.588;7.002;2023-05-07T12:46:53;100967.03;;;26.18;38.50
78337;BME280;67610;51.588;7.002;2023-05-07T12:49:19;100963.97;;;26.14;38.67
78337;BME280;67610;51.588;7.002;2023-05-07T12:51:47;100970.34;;;26.08;38.24
78337;BME280;67610;51.588;7.002;2023-05-07T12:54:12;100978.25;;;25.98;37.96